sensor_id;sensor_type;location;lat;lon;timestamp;pressure;altitude;pressure_sealevel;temperature;humidity
58245;BME280;44550;43.864;25.986;2023-08-30T00:03:35;99903.00;;;27.70;48.25
58245;BME280;44550;43.864;25.986;2023-08-30T00:07:37;99895.59;;;28.07;48.21
58245;BME280;44550;43.864;25.986;2023-08-30T00:11:36;99905.97;;;28.34;47.71
58245;BME280;44550;43.864;25.986;2023-08-30T00:15:36;99895.22;;;28.56;46.79
58245;BME280;44550;43.864;25.986;2023-08-30T00:19:36;99906.41;;;28.84;45.75
58245;BME280;44550;43.864;25.986;2023-08-30T00:23:38;99909.38;;;29.13;44.76
58245;BME280;44550;43.864;25.986;2023-08-30T00:27:37;99896.88;;;29.44;43.91
58245;BME280;44550;43.864;25.986;2023-08-30T00:31:37;99874.50;;;29.44;43.50
58245;BME280;44550;43.864;25.986;2023-08-30T00:35:37;99866.84;;;29.28;43.74
58245;BME280;44550;43.864;25.986;2023-08-30T00:39:39;99876.31;;;29.22;44.04
58245;BME280;44550;43.864;25.986;2023-08-30T00:43:39;99867.91;;;29.16;44.03
58245;BME280;44550;43.864;25.986;2023-08-30T00:47:39;99864.81;;;28.88;44.90
58245;BME280;44550;43.864;25.986;2023-08-30T00:51:38;99868.31;;;29.00;44.66
58245;BME280;44550;43.864;25.986;2023-08-30T00:55:42;99870.84;;;29.34;43.93
58245;BME280;44550;43.864;25.986;2023-08-30T00:59:41;99832.13;;;29.25;43.70
58245;BME280;44550;43.864;25.986;2023-08-30T01:03:41;99870.44;;;29.59;43.62
58245;BME280;44550;43.864;25.986;2023-08-30T01:07:40;99866.06;;;29.58;43.63
58245;BME280;44550;43.864;25.986;2023-08-30T01:11:47;99881.31;;;29.69;43.43
58245;BME280;44550;43.864;25.986;2023-08-30T01:15:48;99884.88;;;29.69;43.49
58245;BME280;44550;43.864;25.986;2023-08-30T01:19:57;99875.56;;;29.73;43.57
58245;BME280;44550;43.864;25.986;2023-08-30T01:23:59;99888.28;;;29.50;44.32
58245;BME280;44550;43.864;25.986;2023-08-30T01:28:04;99891.34;;;29.46;44.51
58245;BME280;44550;43.864;25.986;2023-08-30T01:32:05;99899.06;;;29.50;44.64
58245;BME280;44550;43.864;25.986;2023-08-30T01:36:08;99893.84;;;29.38;45.23
58245;BME280;44550;43.864;25.986;2023-08-30T01:40:09;99885.72;;;29.28;45.63
58245;BME280;44550;43.864;25.986;2023-08-30T01:44:12;99856.94;;;28.96;45.86
58245;BME280;44550;43.864;25.986;2023-08-30T01:48:16;99894.06;;;29.14;45.90
58245;BME280;44550;43.864;25.986;2023-08-30T01:52:16;99897.00;;;29.22;45.86
58245;BME280;44550;43.864;25.986;2023-08-30T01:56:16;99897.16;;;29.09;46.21
58245;BME280;44550;43.864;25.986;2023-08-30T02:00:18;99883.13;;;28.94;46.37
58245;BME280;44550;43.864;25.986;2023-08-30T02:04:18;99875.06;;;28.94;46.42
58245;BME280;44550;43.864;25.986;2023-08-30T02:08:17;99841.50;;;28.77;46.12
58245;BME280;44550;43.864;25.986;2023-08-30T02:12:19;99886.25;;;28.67;47.22
58245;BME280;44550;43.864;25.986;2023-08-30T02:16:25;99880.06;;;28.44;47.90
58245;BME280;44550;43.864;25.986;2023-08-30T02:20:25;99848.06;;;28.30;47.89
58245;BME280;44550;43.864;25.986;2023-08-30T02:24:25;99882.00;;;28.31;48.29
58245;BME280;44550;43.864;25.986;2023-08-30T02:28:26;99878.50;;;28.19;48.68
58245;BME280;44550;43.864;25.986;2023-08-30T02:32:28;99875.34;;;27.92;49.49
58245;BME280;44550;43.864;25.986;2023-08-30T02:36:27;99865.38;;;27.70;50.06
58245;BME280;44550;43.864;25.986;2023-08-30T02:40:27;99864.72;;;27.32;51.15
58245;BME280;44550;43.864;25.986;2023-08-30T02:44:26;99870.19;;;27.31;51.36
58245;BME280;44550;43.864;25.986;2023-08-30T02:48:28;99870.84;;;27.57;50.90
58245;BME280;44550;43.864;25.986;2023-08-30T02:52:28;99856.69;;;27.55;50.53
58245;BME280;44550;43.864;25.986;2023-08-30T02:56:27;99888.53;;;27.95;49.98
58245;BME280;44550;43.864;25.986;2023-08-30T03:00:27;99882.66;;;27.90;50.22
58245;BME280;44550;43.864;25.986;2023-08-30T03:04:31;99887.88;;;27.91;50.42
58245;BME280;44550;43.864;25.986;2023-08-30T03:08:31;99901.47;;;27.43;52.28
58245;BME280;44550;43.864;25.986;2023-08-30T03:12:30;99911.13;;;26.98;54.43
58245;BME280;44550;43.864;25.986;2023-08-30T03:16:29;99907.53;;;26.62;56.49
58245;BME280;44550;43.864;25.986;2023-08-30T03:20:31;99908.44;;;26.50;57.29
58245;BME280;44550;43.864;25.986;2023-08-30T03:24:30;99902.50;;;26.57;57.42
58245;BME280;44550;43.864;25.986;2023-08-30T03:28:30;99908.00;;;26.56;57.67
58245;BME280;44550;43.864;25.986;2023-08-30T03:32:29;99917.09;;;26.40;58.46
58245;BME280;44550;43.864;25.986;2023-08-30T03:36:32;99918.75;;;26.17;59.97
58245;BME280;44550;43.864;25.986;2023-08-30T03:40:31;99915.22;;;25.91;61.35
58245;BME280;44550;43.864;25.986;2023-08-30T03:44:30;99929.38;;;25.93;61.76
58245;BME280;44550;43.864;25.986;2023-08-30T03:48:30;99928.84;;;26.01;61.61
58245;BME280;44550;43.864;25.986;2023-08-30T03:52:32;99925.94;;;26.04;61.80
58245;BME280;44550;43.864;25.986;2023-08-30T03:56:32;99926.88;;;26.29;60.97
58245;BME280;44550;43.864;25.986;2023-08-30T04:00:31;99934.69;;;26.32;61.03
58245;BME280;44550;43.864;25.986;2023-08-30T04:04:32;99933.22;;;26.28;61.28
58245;BME280;44550;43.864;25.986;2023-08-30T04:08:33;99935.66;;;26.43;60.98
58245;BME280;44550;43.864;25.986;2023-08-30T04:12:33;99922.06;;;26.34;61.28
58245;BME280;44550;43.864;25.986;2023-08-30T04:16:34;99930.50;;;26.66;60.67
58245;BME280;44550;43.864;25.986;2023-08-30T04:20:42;99942.84;;;27.16;58.68
58245;BME280;44550;43.864;25.986;2023-08-30T04:24:44;99936.47;;;27.41;57.80
58245;BME280;44550;43.864;25.986;2023-08-30T04:28:43;99942.06;;;27.74;56.55
58245;BME280;44550;43.864;25.986;2023-08-30T04:32:43;99947.38;;;27.98;55.77
58245;BME280;44550;43.864;25.986;2023-08-30T04:36:43;99942.06;;;27.74;55.94
58245;BME280;44550;43.864;25.986;2023-08-30T04:40:46;99949.56;;;27.81;56.28
58245;BME280;44550;43.864;25.986;2023-08-30T04:44:46;99951.88;;;27.15;58.36
58245;BME280;44550;43.864;25.986;2023-08-30T04:48:46;99932.03;;;26.81;59.20
58245;BME280;44550;43.864;25.986;2023-08-30T04:52:46;99967.75;;;26.82;60.21
58245;BME280;44550;43.864;25.986;2023-08-30T04:56:48;99971.75;;;27.13;58.60
58245;BME280;44550;43.864;25.986;2023-08-30T05:00:51;99971.31;;;27.19;57.89
58245;BME280;44550;43.864;25.986;2023-08-30T05:04:55;99970.63;;;27.75;55.99
58245;BME280;44550;43.864;25.986;2023-08-30T05:08:54;99990.97;;;27.90;54.73
58245;BME280;44550;43.864;25.986;2023-08-30T05:13:06;99996.44;;;28.35;53.39
58245;BME280;44550;43.864;25.986;2023-08-30T05:17:07;99987.03;;;28.63;51.73
58245;BME280;44550;43.864;25.986;2023-08-30T05:21:09;100015.50;;;28.32;52.76
58245;BME280;44550;43.864;25.986;2023-08-30T05:25:10;100018.56;;;27.57;55.83
58245;BME280;44550;43.864;25.986;2023-08-30T05:29:12;100009.63;;;27.08;58.44
58245;BME280;44550;43.864;25.986;2023-08-30T05:33:12;100023.47;;;27.15;58.81
58245;BME280;44550;43.864;25.986;2023-08-30T05:37:13;100031.00;;;27.10;58.61
58245;BME280;44550;43.864;25.986;2023-08-30T05:41:14;100032.84;;;27.33;58.22
58245;BME280;44550;43.864;25.986;2023-08-30T05:45:18;100010.19;;;27.13;58.33
58245;BME280;44550;43.864;25.986;2023-08-30T05:49:20;100028.50;;;26.83;58.91
58245;BME280;44550;43.864;25.986;2023-08-30T05:53:20;100030.88;;;26.36;60.41
58245;BME280;44550;43.864;25.986;2023-08-30T05:57:24;100043.19;;;26.13;61.30
58245;BME280;44550;43.864;25.986;2023-08-30T06:01:32;100041.97;;;25.92;62.31
58245;BME280;44550;43.864;25.986;2023-08-30T06:05:33;100052.09;;;26.27;61.73
58245;BME280;44550;43.864;25.986;2023-08-30T06:09:32;100049.56;;;26.51;60.73
58245;BME280;44550;43.864;25.986;2023-08-30T06:13:32;100027.13;;;26.64;59.30
58245;BME280;44550;43.864;25.986;2023-08-30T06:17:35;100058.19;;;27.05;58.50
58245;BME280;44550;43.864;25.986;2023-08-30T06:21:36;100057.91;;;27.21;56.99
58245;BME280;44550;43.864;25.986;2023-08-30T06:25:36;100054.06;;;27.12;56.62
58245;BME280;44550;43.864;25.986;2023-08-30T06:29:36;100063.34;;;26.96;57.36
58245;BME280;44550;43.864;25.986;2023-08-30T06:33:41;100057.06;;;27.21;56.28
58245;BME280;44550;43.864;25.986;2023-08-30T06:37:46;100030.44;;;27.05;56.33
58245;BME280;44550;43.864;25.986;2023-08-30T06:41:45;100028.56;;;27.55;55.20
58245;BME280;44550;43.864;25.986;2023-08-30T06:45:49;100054.69;;;27.53;55.66
58245;BME280;44550;43.864;25.986;2023-08-30T06:49:52;100064.00;;;27.60;55.10
58245;BME280;44550;43.864;25.986;2023-08-30T06:53:53;100053.56;;;28.03;54.24
58245;BME280;44550;43.864;25.986;2023-08-30T06:57:57;100049.28;;;28.81;51.53
58245;BME280;44550;43.864;25.986;2023-08-30T07:01:57;100051.59;;;28.86;50.80
58245;BME280;44550;43.864;25.986;2023-08-30T07:05:59;100069.84;;;29.05;51.03
58245;BME280;44550;43.864;25.986;2023-08-30T07:09:59;100060.63;;;29.07;50.49
58245;BME280;44550;43.864;25.986;2023-08-30T07:14:00;100069.09;;;29.57;49.68
58245;BME280;44550;43.864;25.986;2023-08-30T07:18:01;100066.13;;;30.25;48.23
58245;BME280;44550;43.864;25.986;2023-08-30T07:22:03;100064.81;;;30.71;46.51
58245;BME280;44550;43.864;25.986;2023-08-30T07:26:03;100063.63;;;30.84;45.65
58245;BME280;44550;43.864;25.986;2023-08-30T07:30:04;100043.88;;;30.84;45.58
58245;BME280;44550;43.864;25.986;2023-08-30T07:34:04;100058.09;;;30.96;45.14
58245;BME280;44550;43.864;25.986;2023-08-30T07:38:07;100034.28;;;30.18;46.36
58245;BME280;44550;43.864;25.986;2023-08-30T07:42:07;100056.44;;;30.43;46.24
58245;BME280;44550;43.864;25.986;2023-08-30T07:46:09;100002.38;;;29.82;47.49
58245;BME280;44550;43.864;25.986;2023-08-30T07:50:09;100045.28;;;30.27;47.09
58245;BME280;44550;43.864;25.986;2023-08-30T07:54:10;100045.06;;;30.39;46.67
58245;BME280;44550;43.864;25.986;2023-08-30T07:58:10;100048.34;;;30.43;46.52
58245;BME280;44550;43.864;25.986;2023-08-30T08:02:10;100042.66;;;30.46;45.97
58245;BME280;44550;43.864;25.986;2023-08-30T08:06:10;100038.22;;;30.14;47.60
58245;BME280;44550;43.864;25.986;2023-08-30T08:10:12;100036.88;;;30.20;46.60
58245;BME280;44550;43.864;25.986;2023-08-30T08:14:13;100039.19;;;29.92;47.96
58245;BME280;44550;43.864;25.986;2023-08-30T08:18:15;100040.63;;;29.76;49.09
58245;BME280;44550;43.864;25.986;2023-08-30T08:22:14;100040.88;;;30.26;47.28
58245;BME280;44550;43.864;25.986;2023-08-30T08:26:16;100018.59;;;30.54;45.66
58245;BME280;44550;43.864;25.986;2023-08-30T08:30:19;100034.84;;;31.14;44.89
58245;BME280;44550;43.864;25.986;2023-08-30T08:34:20;100021.75;;;30.90;44.46
58245;BME280;44550;43.864;25.986;2023-08-30T08:38:22;100036.31;;;30.78;44.89
58245;BME280;44550;43.864;25.986;2023-08-30T08:42:27;100014.97;;;31.25;43.15
58245;BME280;44550;43.864;25.986;2023-08-30T08:46:29;100039.91;;;30.88;45.57
58245;BME280;44550;43.864;25.986;2023-08-30T08:50:29;100036.91;;;30.81;46.17
58245;BME280;44550;43.864;25.986;2023-08-30T08:54:30;100035.53;;;31.76;43.01
58245;BME280;44550;43.864;25.986;2023-08-30T08:58:34;100035.84;;;31.03;42.71
58245;BME280;44550;43.864;25.986;2023-08-30T09:02:34;100043.97;;;31.13;43.01
58245;BME280;44550;43.864;25.986;2023-08-30T09:06:35;100032.81;;;31.76;41.95
58245;BME280;44550;43.864;25.986;2023-08-30T09:10:35;100018.88;;;31.90;40.46
58245;BME280;44550;43.864;25.986;2023-08-30T09:14:38;100021.19;;;32.42;40.11
58245;BME280;44550;43.864;25.986;2023-08-30T09:18:38;99995.00;;;32.97;38.69
58245;BME280;44550;43.864;25.986;2023-08-30T09:22:42;100006.53;;;33.63;37.70
58245;BME280;44550;43.864;25.986;2023-08-30T09:26:47;100004.44;;;33.39;37.99
58245;BME280;44550;43.864;25.986;2023-08-30T09:30:53;100001.44;;;32.96;38.44
58245;BME280;44550;43.864;25.986;2023-08-30T09:35:04;99997.97;;;33.04;38.45
58245;BME280;44550;43.864;25.986;2023-08-30T09:39:05;99951.91;;;33.04;38.22
58245;BME280;44550;43.864;25.986;2023-08-30T09:43:06;99973.06;;;33.36;37.58
58245;BME280;44550;43.864;25.986;2023-08-30T09:47:12;99979.97;;;33.13;37.54
58245;BME280;44550;43.864;25.986;2023-08-30T09:51:14;99980.13;;;32.56;38.55
58245;BME280;44550;43.864;25.986;2023-08-30T09:55:15;99971.97;;;33.11;38.04
58245;BME280;44550;43.864;25.986;2023-08-30T09:59:15;99974.94;;;33.54;38.04
58245;BME280;44550;43.864;25.986;2023-08-30T10:03:24;99970.59;;;33.61;36.99
58245;BME280;44550;43.864;25.986;2023-08-30T10:12:27;99972.16;;;33.45;37.73
58245;BME280;44550;43.864;25.986;2023-08-30T10:16:45;99964.00;;;33.81;36.81
58245;BME280;44550;43.864;25.986;2023-08-30T10:20:54;99948.59;;;33.10;37.63
58245;BME280;44550;43.864;25.986;2023-08-30T10:24:59;99943.41;;;32.99;38.03
58245;BME280;44550;43.864;25.986;2023-08-30T10:29:09;99933.72;;;33.68;35.85
58245;BME280;44550;43.864;25.986;2023-08-30T10:33:15;99951.38;;;33.98;36.28
58245;BME280;44550;43.864;25.986;2023-08-30T10:37:26;99946.50;;;33.76;36.23
58245;BME280;44550;43.864;25.986;2023-08-30T10:41:26;99942.97;;;32.94;37.68
58245;BME280;44550;43.864;25.986;2023-08-30T10:45:33;99901.03;;;32.80;36.80
58245;BME280;44550;43.864;25.986;2023-08-30T10:49:41;99940.81;;;32.80;37.33
58245;BME280;44550;43.864;25.986;2023-08-30T10:53:43;99925.75;;;32.49;38.27
58245;BME280;44550;43.864;25.986;2023-08-30T10:58:01;99916.97;;;32.65;38.08
58245;BME280;44550;43.864;25.986;2023-08-30T11:02:06;99931.56;;;33.00;36.49
58245;BME280;44550;43.864;25.986;2023-08-30T11:06:06;99932.81;;;33.06;37.00
58245;BME280;44550;43.864;25.986;2023-08-30T11:10:13;99914.31;;;33.01;36.51
58245;BME280;44550;43.864;25.986;2023-08-30T11:14:22;99913.94;;;32.96;36.82
58245;BME280;44550;43.864;25.986;2023-08-30T11:18:26;99874.16;;;32.96;37.38
58245;BME280;44550;43.864;25.986;2023-08-30T11:22:32;99901.41;;;33.13;37.05
58245;BME280;44550;43.864;25.986;2023-08-30T11:26:55;99879.47;;;33.42;35.64
58245;BME280;44550;43.864;25.986;2023-08-30T11:30:57;99895.41;;;33.45;35.83
58245;BME280;44550;43.864;25.986;2023-08-30T11:35:25;99881.63;;;33.56;35.90
58245;BME280;44550;43.864;25.986;2023-08-30T11:39:31;99882.09;;;33.52;35.52
58245;BME280;44550;43.864;25.986;2023-08-30T11:43:45;99870.47;;;33.94;35.49
58245;BME280;44550;43.864;25.986;2023-08-30T11:48:23;99846.81;;;34.04;34.96
58245;BME280;44550;43.864;25.986;2023-08-30T11:52:28;99864.91;;;34.29;33.88
58245;BME280;44550;43.864;25.986;2023-08-30T11:56:54;99862.63;;;34.08;33.83
58245;BME280;44550;43.864;25.986;2023-08-30T12:01:24;99855.06;;;33.94;34.54
58245;BME280;44550;43.864;25.986;2023-08-30T12:05:27;99848.13;;;34.00;35.15
58245;BME280;44550;43.864;25.986;2023-08-30T12:09:44;99829.78;;;33.85;34.50
58245;BME280;44550;43.864;25.986;2023-08-30T12:14:13;99830.63;;;33.94;34.13
58245;BME280;44550;43.864;25.986;2023-08-30T12:23:35;99837.09;;;34.27;33.84
58245;BME280;44550;43.864;25.986;2023-08-30T12:27:49;99838.91;;;34.61;32.85
58245;BME280;44550;43.864;25.986;2023-08-30T12:32:12;99811.91;;;34.59;33.14
58245;BME280;44550;43.864;25.986;2023-08-30T12:36:27;99776.63;;;34.76;32.47
58245;BME280;44550;43.864;25.986;2023-08-30T12:40:30;99821.81;;;35.10;32.50
58245;BME280;44550;43.864;25.986;2023-08-30T12:44:49;99820.97;;;35.01;32.14
58245;BME280;44550;43.864;25.986;2023-08-30T12:48:49;99807.19;;;34.94;32.34
58245;BME280;44550;43.864;25.986;2023-08-30T12:53:02;99796.66;;;35.57;32.21
58245;BME280;44550;43.864;25.986;2023-08-30T12:57:50;99803.94;;;35.56;31.43
58245;BME280;44550;43.864;25.986;2023-08-30T13:02:07;99787.69;;;35.23;31.90
58245;BME280;44550;43.864;25.986;2023-08-30T13:06:38;99781.56;;;35.21;31.47
58245;BME280;44550;43.864;25.986;2023-08-30T13:10:50;99755.41;;;35.12;31.27
58245;BME280;44550;43.864;25.986;2023-08-30T13:15:33;99764.84;;;35.49;30.97
58245;BME280;44550;43.864;25.986;2023-08-30T13:20:00;99767.75;;;35.56;30.62
58245;BME280;44550;43.864;25.986;2023-08-30T13:24:21;99766.44;;;35.83;29.93
58245;BME280;44550;43.864;25.986;2023-08-30T13:29:01;99763.25;;;36.18;30.03
58245;BME280;44550;43.864;25.986;2023-08-30T13:33:11;99746.91;;;36.18;29.49
58245;BME280;44550;43.864;25.986;2023-08-30T13:37:14;99764.53;;;36.31;29.63
58245;BME280;44550;43.864;25.986;2023-08-30T13:42:17;99767.78;;;36.57;28.69
58245;BME280;44550;43.864;25.986;2023-08-30T13:46:28;99772.69;;;36.62;29.06
58245;BME280;44550;43.864;25.986;2023-08-30T13:53:37;99757.25;;;36.92;28.40
58245;BME280;44550;43.864;25.986;2023-08-30T13:56:58;99768.22;;;36.38;28.30
58245;BME280;44550;43.864;25.986;2023-08-30T14:01:35;99784.28;;;36.79;28.54
58245;BME280;44550;43.864;25.986;2023-08-30T14:06:02;99787.88;;;36.56;28.87
58245;BME280;44550;43.864;25.986;2023-08-30T14:15:01;99792.97;;;36.28;28.98
58245;BME280;44550;43.864;25.986;2023-08-30T14:19:42;99770.47;;;36.34;28.65
58245;BME280;44550;43.864;25.986;2023-08-30T14:23:52;99758.47;;;34.76;30.20
58245;BME280;44550;43.864;25.986;2023-08-30T14:28:50;99795.00;;;34.15;31.33
58245;BME280;44550;43.864;25.986;2023-08-30T14:33:10;99773.25;;;33.64;32.29
58245;BME280;44550;43.864;25.986;2023-08-30T14:42:13;99805.28;;;32.45;33.89
58245;BME280;44550;43.864;25.986;2023-08-30T14:46:15;99804.00;;;32.40;34.20
58245;BME280;44550;43.864;25.986;2023-08-30T14:55:39;99817.28;;;32.79;33.79
58245;BME280;44550;43.864;25.986;2023-08-30T14:59:43;99779.28;;;32.70;33.76
58245;BME280;44550;43.864;25.986;2023-08-30T15:03:48;99826.84;;;32.91;33.59
58245;BME280;44550;43.864;25.986;2023-08-30T15:07:54;99829.63;;;32.45;34.42
58245;BME280;44550;43.864;25.986;2023-08-30T15:12:01;99775.78;;;31.97;34.57
58245;BME280;44550;43.864;25.986;2023-08-30T15:16:10;99789.06;;;31.80;35.06
58245;BME280;44550;43.864;25.986;2023-08-30T15:20:10;99808.88;;;31.71;35.44
58245;BME280;44550;43.864;25.986;2023-08-30T15:24:11;99809.41;;;31.75;35.16
58245;BME280;44550;43.864;25.986;2023-08-30T15:28:17;99809.16;;;31.68;35.38
58245;BME280;44550;43.864;25.986;2023-08-30T15:32:18;99769.69;;;31.48;35.05
58245;BME280;44550;43.864;25.986;2023-08-30T15:36:17;99821.19;;;31.93;35.11
58245;BME280;44550;43.864;25.986;2023-08-30T15:40:29;99827.19;;;32.15;34.35
58245;BME280;44550;43.864;25.986;2023-08-30T15:44:39;99813.25;;;32.19;34.27
58245;BME280;44550;43.864;25.986;2023-08-30T15:48:44;99791.84;;;32.26;33.85
58245;BME280;44550;43.864;25.986;2023-08-30T15:52:47;99815.19;;;32.72;33.50
58245;BME280;44550;43.864;25.986;2023-08-30T15:56:52;99804.19;;;33.10;32.96
58245;BME280;44550;43.864;25.986;2023-08-30T16:01:02;99805.13;;;33.44;32.75
58245;BME280;44550;43.864;25.986;2023-08-30T16:05:16;99820.06;;;34.01;31.93
58245;BME280;44550;43.864;25.986;2023-08-30T16:09:17;99814.69;;;34.25;32.95
58245;BME280;44550;43.864;25.986;2023-08-30T16:13:20;99816.00;;;34.55;33.28
58245;BME280;44550;43.864;25.986;2023-08-30T16:17:22;99822.13;;;34.74;32.61
58245;BME280;44550;43.864;25.986;2023-08-30T16:21:24;99812.75;;;34.52;33.10
58245;BME280;44550;43.864;25.986;2023-08-30T16:25:31;99846.75;;;34.30;33.28
58245;BME280;44550;43.864;25.986;2023-08-30T16:29:40;99866.91;;;33.59;34.87
58245;BME280;44550;43.864;25.986;2023-08-30T16:33:48;99877.06;;;32.85;40.23
58245;BME280;44550;43.864;25.986;2023-08-30T16:37:55;99886.56;;;31.69;46.71
58245;BME280;44550;43.864;25.986;2023-08-30T16:41:55;99929.56;;;27.61;87.32
58245;BME280;44550;43.864;25.986;2023-08-30T16:45:56;99932.31;;;27.37;100.00
58245;BME280;44550;43.864;25.986;2023-08-30T16:50:04;99904.13;;;27.32;100.00
58245;BME280;44550;43.864;25.986;2023-08-30T16:54:10;99934.38;;;27.10;100.00
58245;BME280;44550;43.864;25.986;2023-08-30T16:58:11;99915.06;;;26.44;100.00
58245;BME280;44550;43.864;25.986;2023-08-30T17:02:25;99964.25;;;25.79;100.00
58245;BME280;44550;43.864;25.986;2023-08-30T17:06:30;99971.75;;;25.07;100.00
58245;BME280;44550;43.864;25.986;2023-08-30T17:10:30;99949.53;;;24.22;100.00
58245;BME280;44550;43.864;25.986;2023-08-30T17:14:37;100006.41;;;24.24;100.00
58245;BME280;44550;43.864;25.986;2023-08-30T17:18:40;99983.78;;;24.01;100.00
58245;BME280;44550;43.864;25.986;2023-08-30T17:22:42;99989.50;;;24.24;100.00
58245;BME280;44550;43.864;25.986;2023-08-30T17:26:45;100008.91;;;23.83;100.00
58245;BME280;44550;43.864;25.986;2023-08-30T17:31:05;99998.00;;;23.41;100.00
58245;BME280;44550;43.864;25.986;2023-08-30T17:35:08;100024.41;;;22.83;100.00
58245;BME280;44550;43.864;25.986;2023-08-30T17:39:22;100010.91;;;22.86;100.00
58245;BME280;44550;43.864;25.986;2023-08-30T17:43:56;100054.53;;;23.01;100.00
58245;BME280;44550;43.864;25.986;2023-08-30T17:48:21;100041.53;;;22.94;100.00
58245;BME280;44550;43.864;25.986;2023-08-30T17:52:47;100032.81;;;22.75;100.00
58245;BME280;44550;43.864;25.986;2023-08-30T17:57:20;100020.91;;;22.65;100.00
58245;BME280;44550;43.864;25.986;2023-08-30T18:01:36;99991.47;;;22.35;100.00
58245;BME280;44550;43.864;25.986;2023-08-30T18:11:11;100057.84;;;22.72;100.00
58245;BME280;44550;43.864;25.986;2023-08-30T18:15:35;100067.50;;;22.58;100.00
58245;BME280;44550;43.864;25.986;2023-08-30T18:20:59;100089.50;;;22.79;100.00
58245;BME280;44550;43.864;25.986;2023-08-30T18:25:09;100076.69;;;22.85;100.00
58245;BME280;44550;43.864;25.986;2023-08-30T18:29:24;100100.38;;;23.07;100.00
58245;BME280;44550;43.864;25.986;2023-08-30T18:33:50;100111.38;;;23.01;100.00
58245;BME280;44550;43.864;25.986;2023-08-30T18:37:52;100109.22;;;22.92;100.00
58245;BME280;44550;43.864;25.986;2023-08-30T18:41:54;100076.72;;;22.68;100.00
58245;BME280;44550;43.864;25.986;2023-08-30T18:45:55;100128.44;;;22.98;100.00
58245;BME280;44550;43.864;25.986;2023-08-30T18:50:04;100149.97;;;23.11;100.00
58245;BME280;44550;43.864;25.986;2023-08-30T18:54:11;100168.97;;;23.21;100.00
58245;BME280;44550;43.864;25.986;2023-08-30T18:58:11;100187.09;;;23.14;100.00
58245;BME280;44550;43.864;25.986;2023-08-30T19:02:12;100183.06;;;23.07;100.00
58245;BME280;44550;43.864;25.986;2023-08-30T19:06:17;100172.00;;;23.15;100.00
58245;BME280;44550;43.864;25.986;2023-08-30T19:10:17;100180.00;;;23.15;100.00
58245;BME280;44550;43.864;25.986;2023-08-30T19:14:20;100195.25;;;23.29;100.00
58245;BME280;44550;43.864;25.986;2023-08-30T19:18:22;100181.13;;;23.27;100.00
58245;BME280;44550;43.864;25.986;2023-08-30T19:22:25;100147.94;;;22.99;100.00
58245;BME280;44550;43.864;25.986;2023-08-30T19:26:27;100181.97;;;23.27;100.00
58245;BME280;44550;43.864;25.986;2023-08-30T19:30:28;100179.75;;;23.35;100.00
58245;BME280;44550;43.864;25.986;2023-08-30T19:34:30;100216.63;;;23.44;100.00
58245;BME280;44550;43.864;25.986;2023-08-30T19:38:32;100221.06;;;23.44;100.00
58245;BME280;44550;43.864;25.986;2023-08-30T19:42:32;100198.50;;;23.34;100.00
58245;BME280;44550;43.864;25.986;2023-08-30T19:46:43;100237.31;;;23.73;100.00
58245;BME280;44550;43.864;25.986;2023-08-30T19:50:51;100238.78;;;23.78;100.00
58245;BME280;44550;43.864;25.986;2023-08-30T19:54:58;100227.38;;;23.59;100.00
58245;BME280;44550;43.864;25.986;2023-08-30T19:59:02;100229.69;;;23.49;100.00
58245;BME280;44550;43.864;25.986;2023-08-30T20:03:03;100240.03;;;23.55;100.00
58245;BME280;44550;43.864;25.986;2023-08-30T20:07:46;100236.94;;;23.63;100.00
58245;BME280;44550;43.864;25.986;2023-08-30T20:11:57;100243.69;;;23.70;100.00
58245;BME280;44550;43.864;25.986;2023-08-30T20:15:57;100233.31;;;23.64;100.00
58245;BME280;44550;43.864;25.986;2023-08-30T20:19:59;100224.97;;;23.54;100.00
58245;BME280;44550;43.864;25.986;2023-08-30T20:24:00;100233.97;;;23.36;100.00
58245;BME280;44550;43.864;25.986;2023-08-30T20:28:10;100251.66;;;23.21;100.00
58245;BME280;44550;43.864;25.986;2023-08-30T20:32:09;100249.09;;;23.19;100.00
58245;BME280;44550;43.864;25.986;2023-08-30T20:36:09;100254.56;;;23.16;100.00
58245;BME280;44550;43.864;25.986;2023-08-30T20:40:13;100250.88;;;23.19;100.00
58245;BME280;44550;43.864;25.986;2023-08-30T20:44:17;100244.06;;;23.13;100.00
58245;BME280;44550;43.864;25.986;2023-08-30T20:48:17;100262.63;;;23.32;100.00
58245;BME280;44550;43.864;25.986;2023-08-30T20:52:16;100273.19;;;23.34;100.00
58245;BME280;44550;43.864;25.986;2023-08-30T20:56:17;100272.13;;;23.38;100.00
58245;BME280;44550;43.864;25.986;2023-08-30T21:00:22;100297.00;;;23.38;100.00
58245;BME280;44550;43.864;25.986;2023-08-30T21:04:22;100274.03;;;23.52;100.00
58245;BME280;44550;43.864;25.986;2023-08-30T21:08:23;100287.59;;;23.80;100.00
58245;BME280;44550;43.864;25.986;2023-08-30T21:12:23;100296.44;;;23.65;100.00
58245;BME280;44550;43.864;25.986;2023-08-30T21:16:25;100291.59;;;23.56;100.00
58245;BME280;44550;43.864;25.986;2023-08-30T21:20:25;100294.59;;;23.50;100.00
58245;BME280;44550;43.864;25.986;2023-08-30T21:24:25;100294.53;;;23.51;100.00
58245;BME280;44550;43.864;25.986;2023-08-30T21:28:25;100272.59;;;23.29;100.00
58245;BME280;44550;43.864;25.986;2023-08-30T21:32:27;100282.81;;;23.54;100.00
58245;BME280;44550;43.864;25.986;2023-08-30T21:36:27;100270.50;;;23.51;100.00
58245;BME280;44550;43.864;25.986;2023-08-30T21:40:29;100265.50;;;23.94;100.00
58245;BME280;44550;43.864;25.986;2023-08-30T21:44:29;100267.09;;;24.28;100.00
58245;BME280;44550;43.864;25.986;2023-08-30T21:48:32;100261.13;;;24.55;100.00